Airport View

Enter AWOS ICAO identifier for current METAR.

ex. KFNL

KRCZ 300525Z AUTO 25009KT 10SM -RA SCT002 SCT007 BKN033 21/20 A2955 RMK AO2 P0006 T02090198

30 Oct 2020 05:23

Frequency: 118.775

Phone: 910-997-4093

Other Area AWOS: KCQW - KHFF - KBBP - KAFP

TAF KLBT 292330Z 3000/3024 20014G21KT P6SM VCSH BKN035 FM300800 25015G23KT P6SM SCT030 AMD NOT SKED